sensor_id;sensor_type;location;lat;lon;timestamp;temperature;humidity
75164;HTU21D;63746;45.402;37.922;2023-02-03T07:00:18;1.02;75.47
75164;HTU21D;63746;45.402;37.922;2023-02-03T07:02:49;1.07;75.31
75164;HTU21D;63746;45.402;37.922;2023-02-03T07:05:17;1.17;75.14
75164;HTU21D;63746;45.402;37.922;2023-02-03T07:07:43;1.24;75.09
75164;HTU21D;63746;45.402;37.922;2023-02-03T07:10:09;1.34;75.00
75164;HTU21D;63746;45.402;37.922;2023-02-03T07:12:35;1.41;74.89
75164;HTU21D;63746;45.402;37.922;2023-02-03T07:15:04;1.50;74.85
75164;HTU21D;63746;45.402;37.922;2023-02-03T07:17:30;1.57;74.75
75164;HTU21D;63746;45.402;37.922;2023-02-03T07:19:56;1.65;74.70
75164;HTU21D;63746;45.402;37.922;2023-02-03T07:22:22;1.70;74.68
75164;HTU21D;63746;45.402;37.922;2023-02-03T07:24:48;1.77;74.58
75164;HTU21D;63746;45.402;37.922;2023-02-03T07:27:14;1.81;74.50
75164;HTU21D;63746;45.402;37.922;2023-02-03T07:29:40;1.85;74.48
75164;HTU21D;63746;45.402;37.922;2023-02-03T07:32:06;1.88;74.45
75164;HTU21D;63746;45.402;37.922;2023-02-03T07:34:32;1.95;74.49
75164;HTU21D;63746;45.402;37.922;2023-02-03T07:36:58;2.01;74.53
75164;HTU21D;63746;45.402;37.922;2023-02-03T07:39:24;2.08;74.52
75164;HTU21D;63746;45.402;37.922;2023-02-03T07:41:50;2.13;74.52
75164;HTU21D;63746;45.402;37.922;2023-02-03T07:44:16;2.20;74.53
75164;HTU21D;63746;45.402;37.922;2023-02-03T07:46:42;2.24;74.53
75164;HTU21D;63746;45.402;37.922;2023-02-03T07:49:10;2.28;74.45
75164;HTU21D;63746;45.402;37.922;2023-02-03T07:51:36;2.32;74.48
75164;HTU21D;63746;45.402;37.922;2023-02-03T07:54:02;2.37;74.35
75164;HTU21D;63746;45.402;37.922;2023-02-03T07:56:28;2.40;74.32
75164;HTU21D;63746;45.402;37.922;2023-02-03T07:59:00;2.43;74.26
75164;HTU21D;63746;45.402;37.922;2023-02-03T08:01:26;2.45;74.28
75164;HTU21D;63746;45.402;37.922;2023-02-03T08:03:52;2.50;74.28
75164;HTU21D;63746;45.402;37.922;2023-02-03T08:06:18;2.52;74.32
75164;HTU21D;63746;45.402;37.922;2023-02-03T08:08:44;2.55;74.38
75164;HTU21D;63746;45.402;37.922;2023-02-03T08:11:10;2.59;74.38
75164;HTU21D;63746;45.402;37.922;2023-02-03T08:13:36;2.62;74.41
75164;HTU21D;63746;45.402;37.922;2023-02-03T08:16:02;2.64;74.44
75164;HTU21D;63746;45.402;37.922;2023-02-03T08:18:28;2.69;74.47
75164;HTU21D;63746;45.402;37.922;2023-02-03T08:20:54;2.72;74.53
75164;HTU21D;63746;45.402;37.922;2023-02-03T08:23:20;2.75;74.51
75164;HTU21D;63746;45.402;37.922;2023-02-03T08:25:52;2.78;74.46
75164;HTU21D;63746;45.402;37.922;2023-02-03T08:28:18;2.81;74.51
75164;HTU21D;63746;45.402;37.922;2023-02-03T08:30:44;2.84;74.64
75164;HTU21D;63746;45.402;37.922;2023-02-03T08:33:10;2.89;74.84
75164;HTU21D;63746;45.402;37.922;2023-02-03T08:35:36;2.95;74.71
75164;HTU21D;63746;45.402;37.922;2023-02-03T08:38:03;2.97;74.55
75164;HTU21D;63746;45.402;37.922;2023-02-03T08:40:29;2.99;74.58
75164;HTU21D;63746;45.402;37.922;2023-02-03T08:42:55;3.02;74.59
75164;HTU21D;63746;45.402;37.922;2023-02-03T08:45:22;3.04;74.54
75164;HTU21D;63746;45.402;37.922;2023-02-03T08:47:48;3.06;74.57
75164;HTU21D;63746;45.402;37.922;2023-02-03T08:50:14;3.11;74.57
75164;HTU21D;63746;45.402;37.922;2023-02-03T08:52:40;3.11;74.58
75164;HTU21D;63746;45.402;37.922;2023-02-03T08:55:06;3.14;74.56
75164;HTU21D;63746;45.402;37.922;2023-02-03T08:57:33;3.17;74.64
75164;HTU21D;63746;45.402;37.922;2023-02-03T09:00:00;3.19;74.66
75164;HTU21D;63746;45.402;37.922;2023-02-03T09:02:27;3.24;74.69
75164;HTU21D;63746;45.402;37.922;2023-02-03T09:04:52;3.26;74.75
75164;HTU21D;63746;45.402;37.922;2023-02-03T09:07:18;3.28;74.64
75164;HTU21D;63746;45.402;37.922;2023-02-03T09:09:44;3.30;74.89
75164;HTU21D;63746;45.402;37.922;2023-02-03T09:12:11;3.33;74.73
75164;HTU21D;63746;45.402;37.922;2023-02-03T09:14:37;3.36;74.76
75164;HTU21D;63746;45.402;37.922;2023-02-03T09:17:04;3.38;74.70
75164;HTU21D;63746;45.402;37.922;2023-02-03T09:19:32;3.41;74.75
75164;HTU21D;63746;45.402;37.922;2023-02-03T09:21:59;3.43;74.64
75164;HTU21D;63746;45.402;37.922;2023-02-03T09:24:25;3.45;74.64
75164;HTU21D;63746;45.402;37.922;2023-02-03T09:26:51;3.47;74.68
75164;HTU21D;63746;45.402;37.922;2023-02-03T09:29:17;3.50;74.62
75164;HTU21D;63746;45.402;37.922;2023-02-03T09:31:44;3.52;74.63
75164;HTU21D;63746;45.402;37.922;2023-02-03T09:34:11;3.55;74.69
75164;HTU21D;63746;45.402;37.922;2023-02-03T09:36:37;3.56;74.66
75164;HTU21D;63746;45.402;37.922;2023-02-03T09:39:03;3.58;74.73
75164;HTU21D;63746;45.402;37.922;2023-02-03T09:44:18;3.61;74.67
75164;HTU21D;63746;45.402;37.922;2023-02-03T09:46:53;3.62;74.73
75164;HTU21D;63746;45.402;37.922;2023-02-03T09:51:52;3.65;74.68
75164;HTU21D;63746;45.402;37.922;2023-02-03T09:54:41;3.67;74.66
75164;HTU21D;63746;45.402;37.922;2023-02-03T09:57:25;3.71;74.80
75164;HTU21D;63746;45.402;37.922;2023-02-03T09:59:53;3.76;74.84
75164;HTU21D;63746;45.402;37.922;2023-02-03T10:05:07;3.83;74.80
75164;HTU21D;63746;45.402;37.922;2023-02-03T10:18:29;3.93;74.64
75164;HTU21D;63746;45.402;37.922;2023-02-03T10:21:19;3.98;74.79
75164;HTU21D;63746;45.402;37.922;2023-02-03T10:23:47;3.95;74.83
75164;HTU21D;63746;45.402;37.922;2023-02-03T10:26:17;3.97;75.38
75164;HTU21D;63746;45.402;37.922;2023-02-03T10:28:54;3.99;75.14
75164;HTU21D;63746;45.402;37.922;2023-02-03T10:31:21;3.98;75.91
75164;HTU21D;63746;45.402;37.922;2023-02-03T10:33:55;3.97;75.67
75164;HTU21D;63746;45.402;37.922;2023-02-03T10:36:35;3.95;75.32
75164;HTU21D;63746;45.402;37.922;2023-02-03T10:41:37;4.00;75.25
75164;HTU21D;63746;45.402;37.922;2023-02-03T10:44:05;4.01;75.28
75164;HTU21D;63746;45.402;37.922;2023-02-03T10:46:37;4.01;75.71
75164;HTU21D;63746;45.402;37.922;2023-02-03T10:49:04;4.02;75.31
75164;HTU21D;63746;45.402;37.922;2023-02-03T10:51:51;4.03;75.43
75164;HTU21D;63746;45.402;37.922;2023-02-03T10:56:52;4.00;75.20
75164;HTU21D;63746;45.402;37.922;2023-02-03T10:59:32;3.99;75.60
75164;HTU21D;63746;45.402;37.922;2023-02-03T11:01:58;3.99;75.08
75164;HTU21D;63746;45.402;37.922;2023-02-03T11:04:27;3.98;75.13
75164;HTU21D;63746;45.402;37.922;2023-02-03T11:06:58;3.98;74.96
75164;HTU21D;63746;45.402;37.922;2023-02-03T11:09:38;4.01;75.20
75164;HTU21D;63746;45.402;37.922;2023-02-03T11:12:15;4.02;75.18
75164;HTU21D;63746;45.402;37.922;2023-02-03T11:14:48;4.03;75.07
75164;HTU21D;63746;45.402;37.922;2023-02-03T11:17:25;4.05;75.01
75164;HTU21D;63746;45.402;37.922;2023-02-03T11:20:11;4.07;75.16
75164;HTU21D;63746;45.402;37.922;2023-02-03T11:22:39;4.09;75.06
75164;HTU21D;63746;45.402;37.922;2023-02-03T11:25:27;4.13;75.31
75164;HTU21D;63746;45.402;37.922;2023-02-03T11:27:55;4.14;75.05
75164;HTU21D;63746;45.402;37.922;2023-02-03T11:30:26;4.13;74.98
75164;HTU21D;63746;45.402;37.922;2023-02-03T11:32:54;4.13;75.00
75164;HTU21D;63746;45.402;37.922;2023-02-03T11:35:26;4.13;74.82
75164;HTU21D;63746;45.402;37.922;2023-02-03T11:37:54;4.13;74.83
75164;HTU21D;63746;45.402;37.922;2023-02-03T11:40:29;4.12;75.03
75164;HTU21D;63746;45.402;37.922;2023-02-03T11:43:16;4.12;74.80
75164;HTU21D;63746;45.402;37.922;2023-02-03T11:45:51;4.10;74.76
75164;HTU21D;63746;45.402;37.922;2023-02-03T11:56:36;4.15;74.88
75164;HTU21D;63746;45.402;37.922;2023-02-03T11:59:25;4.18;74.91
75164;HTU21D;63746;45.402;37.922;2023-02-03T12:33:23;6.24;71.23
75164;HTU21D;63746;45.402;37.922;2023-02-03T12:35:56;6.06;71.55
75164;HTU21D;63746;45.402;37.922;2023-02-03T12:38:55;5.84;72.13
75164;HTU21D;63746;45.402;37.922;2023-02-03T12:41:26;5.67;72.48
75164;HTU21D;63746;45.402;37.922;2023-02-03T12:43:58;5.51;72.90
75164;HTU21D;63746;45.402;37.922;2023-02-03T12:48:38;5.22;73.32
75164;HTU21D;63746;45.402;37.922;2023-02-03T12:51:11;5.07;73.64
75164;HTU21D;63746;45.402;37.922;2023-02-03T12:53:43;4.95;73.87
75164;HTU21D;63746;45.402;37.922;2023-02-03T12:56:14;4.87;74.04
75164;HTU21D;63746;45.402;37.922;2023-02-03T12:58:52;4.78;74.18
75164;HTU21D;63746;45.402;37.922;2023-02-03T13:01:23;4.72;74.29
75164;HTU21D;63746;45.402;37.922;2023-02-03T13:12:35;4.61;75.47
75164;HTU21D;63746;45.402;37.922;2023-02-03T13:15:33;4.62;75.60
75164;HTU21D;63746;45.402;37.922;2023-02-03T13:20:40;4.75;75.70
75164;HTU21D;63746;45.402;37.922;2023-02-03T13:23:11;4.80;75.62
75164;HTU21D;63746;45.402;37.922;2023-02-03T13:25:50;4.81;75.42
75164;HTU21D;63746;45.402;37.922;2023-02-03T13:42:42;4.88;75.63
75164;HTU21D;63746;45.402;37.922;2023-02-03T13:45:30;4.87;75.22
75164;HTU21D;63746;45.402;37.922;2023-02-03T13:48:20;4.87;75.19
75164;HTU21D;63746;45.402;37.922;2023-02-03T13:50:48;4.87;75.03
75164;HTU21D;63746;45.402;37.922;2023-02-03T13:53:21;4.87;74.94
75164;HTU21D;63746;45.402;37.922;2023-02-03T13:55:54;4.87;74.91
75164;HTU21D;63746;45.402;37.922;2023-02-03T13:58:26;4.88;75.00
75164;HTU21D;63746;45.402;37.922;2023-02-03T14:16:58;5.90;72.33
75164;HTU21D;63746;45.402;37.922;2023-02-03T14:21:59;5.70;72.65
75164;HTU21D;63746;45.402;37.922;2023-02-03T14:24:46;5.57;73.10
75164;HTU21D;63746;45.402;37.922;2023-02-03T14:27:31;5.46;73.35
75164;HTU21D;63746;45.402;37.922;2023-02-03T14:30:14;5.36;73.61
75164;HTU21D;63746;45.402;37.922;2023-02-03T14:32:52;5.27;73.76
75164;HTU21D;63746;45.402;37.922;2023-02-03T14:35:22;5.19;73.86
75164;HTU21D;63746;45.402;37.922;2023-02-03T14:37:54;5.11;74.04
75164;HTU21D;63746;45.402;37.922;2023-02-03T14:40:33;5.04;74.23
75164;HTU21D;63746;45.402;37.922;2023-02-03T14:54:09;4.84;74.54
75164;HTU21D;63746;45.402;37.922;2023-02-03T14:59:30;4.77;74.51
75164;HTU21D;63746;45.402;37.922;2023-02-03T15:04:27;4.73;74.57
75164;HTU21D;63746;45.402;37.922;2023-02-03T15:06:53;4.72;74.51
75164;HTU21D;63746;45.402;37.922;2023-02-03T15:09:41;4.69;74.54
75164;HTU21D;63746;45.402;37.922;2023-02-03T15:12:22;4.65;74.53
75164;HTU21D;63746;45.402;37.922;2023-02-03T15:14:48;4.65;74.49
75164;HTU21D;63746;45.402;37.922;2023-02-03T15:17:25;4.65;74.48
75164;HTU21D;63746;45.402;37.922;2023-02-03T15:19:52;4.63;74.44
75164;HTU21D;63746;45.402;37.922;2023-02-03T15:22:27;4.61;74.54
75164;HTU21D;63746;45.402;37.922;2023-02-03T15:25:01;4.60;74.54
75164;HTU21D;63746;45.402;37.922;2023-02-03T15:27:31;4.59;74.56
75164;HTU21D;63746;45.402;37.922;2023-02-03T15:29:57;4.60;74.57
75164;HTU21D;63746;45.402;37.922;2023-02-03T15:32:34;4.60;74.62
75164;HTU21D;63746;45.402;37.922;2023-02-03T15:35:04;4.61;74.67
75164;HTU21D;63746;45.402;37.922;2023-02-03T15:37:50;4.63;74.67
75164;HTU21D;63746;45.402;37.922;2023-02-03T15:40:20;4.66;74.67
75164;HTU21D;63746;45.402;37.922;2023-02-03T15:47:58;4.72;74.72
75164;HTU21D;63746;45.402;37.922;2023-02-03T15:50:30;4.73;74.77
75164;HTU21D;63746;45.402;37.922;2023-02-03T15:53:23;4.75;74.85
75164;HTU21D;63746;45.402;37.922;2023-02-03T15:55:53;4.75;74.71
75164;HTU21D;63746;45.402;37.922;2023-02-03T15:58:25;4.74;74.80
75164;HTU21D;63746;45.402;37.922;2023-02-03T16:01:00;4.75;74.80
75164;HTU21D;63746;45.402;37.922;2023-02-03T16:03:39;4.75;74.80
75164;HTU21D;63746;45.402;37.922;2023-02-03T16:06:17;4.75;74.86
75164;HTU21D;63746;45.402;37.922;2023-02-03T16:08:45;4.75;74.76
75164;HTU21D;63746;45.402;37.922;2023-02-03T16:13:54;4.75;74.80
75164;HTU21D;63746;45.402;37.922;2023-02-03T16:16:24;4.73;74.75
75164;HTU21D;63746;45.402;37.922;2023-02-03T16:18:57;4.73;74.80
75164;HTU21D;63746;45.402;37.922;2023-02-03T16:23:59;4.71;74.75
75164;HTU21D;63746;45.402;37.922;2023-02-03T16:26:26;4.69;74.74
75164;HTU21D;63746;45.402;37.922;2023-02-03T16:29:10;4.69;74.91
75164;HTU21D;63746;45.402;37.922;2023-02-03T16:31:55;4.66;75.31
75164;HTU21D;63746;45.402;37.922;2023-02-03T16:34:39;4.62;75.19
75164;HTU21D;63746;45.402;37.922;2023-02-03T16:37:29;4.61;75.06
75164;HTU21D;63746;45.402;37.922;2023-02-03T16:40:21;4.59;75.01
75164;HTU21D;63746;45.402;37.922;2023-02-03T16:43:13;4.60;75.06
75164;HTU21D;63746;45.402;37.922;2023-02-03T16:45:59;4.61;75.05
75164;HTU21D;63746;45.402;37.922;2023-02-03T16:48:43;4.63;75.05
75164;HTU21D;63746;45.402;37.922;2023-02-03T16:51:40;4.63;75.03
75164;HTU21D;63746;45.402;37.922;2023-02-03T16:54:12;4.64;74.91
75164;HTU21D;63746;45.402;37.922;2023-02-03T16:56:40;4.64;74.92
75164;HTU21D;63746;45.402;37.922;2023-02-03T16:59:06;4.64;74.84
75164;HTU21D;63746;45.402;37.922;2023-02-03T17:01:32;4.65;74.80
75164;HTU21D;63746;45.402;37.922;2023-02-03T17:03:58;4.67;74.84
75164;HTU21D;63746;45.402;37.922;2023-02-03T17:06:24;4.71;74.88
75164;HTU21D;63746;45.402;37.922;2023-02-03T17:08:50;4.73;74.86
75164;HTU21D;63746;45.402;37.922;2023-02-03T17:11:19;4.78;74.93
75164;HTU21D;63746;45.402;37.922;2023-02-03T17:13:46;4.80;74.98
75164;HTU21D;63746;45.402;37.922;2023-02-03T17:16:18;4.80;74.68
75164;HTU21D;63746;45.402;37.922;2023-02-03T17:18:45;4.80;75.01
75164;HTU21D;63746;45.402;37.922;2023-02-03T17:21:14;4.79;74.89
75164;HTU21D;63746;45.402;37.922;2023-02-03T17:23:40;4.77;74.68
75164;HTU21D;63746;45.402;37.922;2023-02-03T17:26:07;4.76;74.58
75164;HTU21D;63746;45.402;37.922;2023-02-03T17:28:33;4.76;74.61
75164;HTU21D;63746;45.402;37.922;2023-02-03T17:31:02;4.76;74.59
75164;HTU21D;63746;45.402;37.922;2023-02-03T17:33:29;4.74;74.54
75164;HTU21D;63746;45.402;37.922;2023-02-03T17:36:13;4.74;74.57
75164;HTU21D;63746;45.402;37.922;2023-02-03T17:38:45;4.73;74.49
75164;HTU21D;63746;45.402;37.922;2023-02-03T17:41:13;4.73;74.44
75164;HTU21D;63746;45.402;37.922;2023-02-03T17:43:40;4.73;74.51
75164;HTU21D;63746;45.402;37.922;2023-02-03T17:46:07;4.75;74.45
75164;HTU21D;63746;45.402;37.922;2023-02-03T17:48:34;4.75;74.44
75164;HTU21D;63746;45.402;37.922;2023-02-03T17:51:20;4.76;74.47
75164;HTU21D;63746;45.402;37.922;2023-02-03T17:53:47;4.76;74.31
75164;HTU21D;63746;45.402;37.922;2023-02-03T17:56:21;4.75;74.21
75164;HTU21D;63746;45.402;37.922;2023-02-03T17:58:55;4.73;74.15
75164;HTU21D;63746;45.402;37.922;2023-02-03T18:01:21;4.71;74.11
75164;HTU21D;63746;45.402;37.922;2023-02-03T18:03:55;4.68;74.09
75164;HTU21D;63746;45.402;37.922;2023-02-03T18:06:22;4.69;74.26
75164;HTU21D;63746;45.402;37.922;2023-02-03T18:08:49;4.71;74.28
75164;HTU21D;63746;45.402;37.922;2023-02-03T18:11:16;4.73;74.18
75164;HTU21D;63746;45.402;37.922;2023-02-03T18:13:45;4.73;74.12
75164;HTU21D;63746;45.402;37.922;2023-02-03T18:16:17;4.72;74.04
75164;HTU21D;63746;45.402;37.922;2023-02-03T18:18:44;4.69;73.91
75164;HTU21D;63746;45.402;37.922;2023-02-03T18:21:12;4.67;73.90
75164;HTU21D;63746;45.402;37.922;2023-02-03T18:23:39;4.64;73.81
75164;HTU21D;63746;45.402;37.922;2023-02-03T18:26:07;4.59;73.67
75164;HTU21D;63746;45.402;37.922;2023-02-03T18:28:34;4.53;73.61
